Time;durP1;ratioP1;P1;durP2;ratioP2;P2;SDS_P1;SDS_P2;PMS_P1;PMS_P2;Temp;Humidity;BMP_temperature;BMP_pressure;BME280_temperature;BME280_humidity;BME280_pressure;Samples;Min_cycle;Max_cycle;Signal;HPM_P1;HPM_P2
2022/09/14 00:01:23;;;;;;;1.38;1.27;;;26.30;52.20;;;;;;5089834;28;45351;-85
2022/09/14 00:03:52;;;;;;;2.50;1.50;;;26.30;52.10;;;;;;5087498;28;45327;-85
2022/09/14 00:06:18;;;;;;;2.63;1.50;;;26.30;52.20;;;;;;5087377;28;45444;-84
2022/09/14 00:08:45;;;;;;;2.05;1.40;;;26.30;52.10;;;;;;5069325;28;45281;-85
2022/09/14 00:11:13;;;;;;;1.60;1.50;;;26.30;52.30;;;;;;5069500;28;45396;-85
2022/09/14 00:13:40;;;;;;;1.38;1.27;;;26.30;52.30;;;;;;5069900;28;45411;-84
2022/09/14 00:16:10;;;;;;;1.45;1.35;;;26.20;52.30;;;;;;5069396;28;45253;-85
2022/09/14 00:18:37;;;;;;;1.27;1.17;;;26.20;52.00;;;;;;5069412;28;45693;-85
2022/09/14 00:21:05;;;;;;;1.98;1.50;;;26.20;52.20;;;;;;5069170;28;45296;-84
2022/09/14 00:23:32;;;;;;;2.35;1.60;;;26.20;52.10;;;;;;5069209;28;45221;-85
2022/09/14 00:26:03;;;;;;;1.35;1.30;;;26.20;52.30;;;;;;5069295;28;46481;-85
2022/09/14 00:28:30;;;;;;;1.42;1.23;;;26.10;52.10;;;;;;5066809;28;45315;-85
2022/09/14 00:30:56;;;;;;;3.25;1.70;;;26.10;52.10;;;;;;5066898;28;45299;-85
2022/09/14 00:33:25;;;;;;;2.05;1.48;;;26.10;52.10;;;;;;5067082;28;45234;-85
2022/09/14 00:35:52;;;;;;;2.03;1.45;;;26.10;52.10;;;;;;5069302;28;47048;-85
2022/09/14 00:38:18;;;;;;;1.58;1.38;;;26.10;52.20;;;;;;5066509;28;45324;-85
2022/09/14 00:40:45;;;;;;;2.95;1.55;;;26.10;52.10;;;;;;5066761;28;45291;-85
2022/09/14 00:43:14;;;;;;;1.90;1.55;;;26.10;52.00;;;;;;5069544;28;45266;-85
2022/09/14 00:45:41;;;;;;;1.45;1.35;;;26.00;52.80;;;;;;5068689;28;46405;-85
2022/09/14 00:48:08;;;;;;;2.00;1.45;;;26.00;52.70;;;;;;5068832;28;45337;-85
2022/09/14 00:50:36;;;;;;;1.50;1.40;;;26.00;52.20;;;;;;5067841;28;45248;-85
2022/09/14 00:53:04;;;;;;;1.17;1.17;;;26.00;52.10;;;;;;5069070;28;45446;-86
2022/09/14 00:55:30;;;;;;;2.17;1.70;;;26.00;52.20;;;;;;5073899;28;47307;-85
2022/09/14 00:57:58;;;;;;;1.42;1.33;;;26.00;52.20;;;;;;5089272;28;45414;-85
2022/09/14 01:00:26;;;;;;;1.45;1.35;;;26.00;52.20;;;;;;5089632;28;45284;-85
2022/09/14 01:02:53;;;;;;;1.58;1.42;;;25.90;52.30;;;;;;5089544;28;45447;-85
2022/09/14 01:05:20;;;;;;;1.40;1.30;;;25.90;52.40;;;;;;5086310;28;45421;-85
2022/09/14 01:08:08;;;;;;;2.00;1.40;;;25.90;52.40;;;;;;5076292;28;45354;-85
2022/09/14 01:10:45;;;;;;;2.70;1.40;;;25.90;52.40;;;;;;5068713;28;45281;-85
2022/09/14 01:13:21;;;;;;;1.20;1.20;;;25.90;52.30;;;;;;5068833;28;45230;-84
2022/09/14 01:15:52;;;;;;;2.10;1.45;;;25.90;52.40;;;;;;5068684;28;45341;-85
2022/09/14 01:18:21;;;;;;;2.65;1.40;;;25.90;52.50;;;;;;5068424;28;45407;-85
2022/09/14 01:20:51;;;;;;;1.90;1.30;;;25.90;52.50;;;;;;5068810;28;45170;-85
2022/09/14 01:23:24;;;;;;;1.48;1.38;;;25.80;52.40;;;;;;5068895;28;45298;-85
2022/09/14 01:26:15;;;;;;;1.60;1.42;;;25.80;52.50;;;;;;5068542;28;45194;-85
2022/09/14 01:28:47;;;;;;;1.42;1.33;;;25.80;52.50;;;;;;5068585;28;45267;-85
2022/09/14 01:31:16;;;;;;;1.40;1.30;;;25.80;52.50;;;;;;5066019;28;45389;-85
2022/09/14 01:33:46;;;;;;;1.60;1.45;;;25.80;52.50;;;;;;5068682;28;45182;-85
2022/09/14 01:36:13;;;;;;;1.77;1.60;;;25.80;52.60;;;;;;5065593;28;45500;-85
2022/09/14 01:38:41;;;;;;;1.92;1.50;;;25.80;52.60;;;;;;5068414;28;45210;-85
2022/09/14 01:41:11;;;;;;;1.38;1.27;;;25.80;52.60;;;;;;5068508;28;45184;-86
2022/09/14 01:43:39;;;;;;;1.77;1.58;;;25.70;52.60;;;;;;5067523;28;45205;-85
2022/09/14 01:46:09;;;;;;;1.58;1.27;;;25.70;52.60;;;;;;5067692;28;45304;-86
2022/09/14 01:48:38;;;;;;;1.65;1.52;;;25.70;52.60;;;;;;5067989;28;45281;-86
2022/09/14 01:51:06;;;;;;;1.48;1.15;;;25.70;52.60;;;;;;5067526;28;45299;-85
2022/09/14 01:53:36;;;;;;;1.38;1.25;;;25.70;52.70;;;;;;5068382;28;45163;-85
2022/09/14 01:56:05;;;;;;;1.42;1.33;;;25.70;52.60;;;;;;5066969;28;45391;-86
2022/09/14 01:58:35;;;;;;;1.40;1.30;;;25.70;53.20;;;;;;5087993;28;45368;-86
2022/09/14 02:01:02;;;;;;;1.10;1.10;;;25.70;52.80;;;;;;5088256;28;45236;-86
2022/09/14 02:03:31;;;;;;;3.03;1.42;;;25.70;52.70;;;;;;5088348;28;45463;-85
2022/09/14 02:06:00;;;;;;;1.98;1.42;;;25.60;52.70;;;;;;5088135;28;47295;-85
2022/09/14 02:08:28;;;;;;;1.25;1.15;;;25.60;52.70;;;;;;5072372;28;45352;-84
2022/09/14 02:10:54;;;;;;;1.85;1.55;;;25.60;52.80;;;;;;5068086;28;45487;-85
2022/09/14 02:13:21;;;;;;;1.17;1.17;;;25.60;52.80;;;;;;5067899;28;45299;-86
2022/09/14 02:15:48;;;;;;;1.30;1.30;;;25.60;52.90;;;;;;5067479;28;46602;-85
2022/09/14 02:18:15;;;;;;;1.40;1.30;;;25.60;52.90;;;;;;5065033;28;45276;-85
2022/09/14 02:20:45;;;;;;;1.35;1.25;;;25.60;52.90;;;;;;5067692;28;45169;-85
2022/09/14 02:23:12;;;;;;;1.63;1.40;;;25.60;52.90;;;;;;5067100;28;45296;-85
2022/09/14 02:25:40;;;;;;;1.30;1.20;;;25.60;53.00;;;;;;5067352;28;46736;-86
2022/09/14 02:28:07;;;;;;;1.42;1.33;;;25.50;52.90;;;;;;5064836;28;45209;-85
2022/09/14 02:30:38;;;;;;;2.53;1.40;;;25.50;52.90;;;;;;5067722;28;45253;-85
2022/09/14 02:33:07;;;;;;;1.40;1.25;;;25.50;53.00;;;;;;5067650;28;45534;-85
2022/09/14 02:35:38;;;;;;;1.30;1.20;;;25.50;53.00;;;;;;5075571;28;45774;-86
2022/09/14 02:38:10;;;;;;;2.08;1.55;;;25.50;53.00;;;;;;5087718;28;45275;-86
2022/09/14 02:40:39;;;;;;;1.33;1.23;;;25.50;53.00;;;;;;5087997;28;45232;-85
2022/09/14 02:43:23;;;;;;;1.30;1.20;;;25.50;53.60;;;;;;5088175;28;45194;-85
2022/09/14 02:45:53;;;;;;;1.40;1.30;;;25.50;53.00;;;;;;5087509;28;46405;-85
2022/09/14 02:48:22;;;;;;;1.70;1.30;;;25.50;53.10;;;;;;5087565;28;45295;-85
2022/09/14 02:50:51;;;;;;;2.10;1.30;;;25.50;53.00;;;;;;5087251;28;45410;-85
2022/09/14 02:53:21;;;;;;;1.40;1.30;;;25.50;52.90;;;;;;5087112;28;45172;-85
2022/09/14 02:55:49;;;;;;;1.33;1.20;;;25.50;53.00;;;;;;5068498;28;45396;-86
2022/09/14 02:58:16;;;;;;;1.48;1.23;;;25.50;53.00;;;;;;5066964;28;45204;-85
2022/09/14 03:00:44;;;;;;;1.42;1.15;;;25.50;53.00;;;;;;5067285;28;45193;-85
2022/09/14 03:03:12;;;;;;;1.50;1.40;;;25.50;53.00;;;;;;5067347;28;45227;-86
2022/09/14 03:05:39;;;;;;;1.38;1.27;;;25.50;53.00;;;;;;5066910;28;46688;-85
2022/09/14 03:08:06;;;;;;;1.40;1.30;;;25.40;53.00;;;;;;5079476;28;45647;-86
2022/09/14 03:10:34;;;;;;;1.30;1.20;;;25.40;52.90;;;;;;5079072;28;45248;-85
2022/09/14 03:13:01;;;;;;;1.33;1.23;;;25.40;53.00;;;;;;5085026;28;45352;-84
2022/09/14 03:15:28;;;;;;;1.50;1.40;;;25.40;53.00;;;;;;5087076;28;45477;-85
2022/09/14 03:17:54;;;;;;;1.40;1.10;;;25.40;53.00;;;;;;5087403;28;45268;-85
2022/09/14 03:20:22;;;;;;;2.75;1.40;;;25.40;53.00;;;;;;5087673;28;45235;-85
2022/09/14 03:22:49;;;;;;;1.63;1.30;;;25.40;52.90;;;;;;5087577;28;45209;-85
2022/09/14 03:25:17;;;;;;;1.92;1.30;;;25.30;52.90;;;;;;5086783;28;46911;-86
2022/09/14 03:27:48;;;;;;;1.48;1.30;;;25.30;53.00;;;;;;5087036;28;45305;-86
2022/09/14 03:30:15;;;;;;;1.48;1.38;;;25.30;52.90;;;;;;5084433;28;45365;-86
2022/09/14 03:32:42;;;;;;;2.75;1.40;;;25.30;52.90;;;;;;5087610;28;45518;-85
2022/09/14 03:35:09;;;;;;;1.38;1.27;;;25.30;53.60;;;;;;5080635;28;46536;-85
2022/09/14 03:37:37;;;;;;;2.20;1.50;;;25.30;53.00;;;;;;5069978;28;45409;-84
2022/09/14 03:40:04;;;;;;;1.60;1.50;;;25.30;52.90;;;;;;5070452;28;45350;-85
2022/09/14 03:42:31;;;;;;;1.58;1.48;;;25.30;53.00;;;;;;5067787;28;45341;-85
2022/09/14 03:44:59;;;;;;;1.13;1.13;;;25.30;53.00;;;;;;5069365;28;46682;-85
2022/09/14 03:47:26;;;;;;;1.45;1.35;;;25.30;53.00;;;;;;5069597;28;45196;-85
2022/09/14 03:49:53;;;;;;;1.73;1.20;;;25.30;53.00;;;;;;5071780;28;45142;-85
2022/09/14 03:52:20;;;;;;;1.10;1.10;;;25.20;53.00;;;;;;5070437;28;44985;-85
2022/09/14 03:54:47;;;;;;;1.30;1.20;;;25.20;53.00;;;;;;5079744;28;46442;-85
2022/09/14 03:57:14;;;;;;;1.95;1.52;;;25.20;53.00;;;;;;5070457;28;45289;-85
2022/09/14 03:59:40;;;;;;;1.27;1.20;;;25.20;53.00;;;;;;5067414;28;45237;-85
2022/09/14 04:02:09;;;;;;;1.27;1.17;;;25.20;53.00;;;;;;5070306;28;45662;-85
2022/09/14 04:04:35;;;;;;;1.20;1.10;;;25.20;53.00;;;;;;5067046;28;45277;-85
2022/09/14 04:07:02;;;;;;;1.77;1.58;;;25.20;53.00;;;;;;5073432;28;45392;-85
2022/09/14 04:09:29;;;;;;;1.42;1.33;;;25.20;53.00;;;;;;5087759;28;45304;-85
2022/09/14 04:11:56;;;;;;;1.58;1.48;;;25.20;53.00;;;;;;5090255;28;45248;-85
2022/09/14 04:14:23;;;;;;;1.35;1.13;;;25.20;53.00;;;;;;5089574;28;45463;-86
2022/09/14 04:16:50;;;;;;;1.65;1.50;;;25.10;52.90;;;;;;5089677;28;45401;-85
2022/09/14 04:19:19;;;;;;;1.40;1.30;;;25.10;52.90;;;;;;5089779;28;45391;-86
2022/09/14 04:21:46;;;;;;;1.40;1.30;;;25.10;53.00;;;;;;5090409;28;45478;-86
2022/09/14 04:24:14;;;;;;;1.63;1.30;;;25.10;53.00;;;;;;5086880;28;45213;-86
2022/09/14 04:26:41;;;;;;;1.40;1.30;;;25.10;53.00;;;;;;5089582;28;45252;-85
2022/09/14 04:29:09;;;;;;;1.60;1.20;;;25.10;53.00;;;;;;5089878;28;45149;-85
2022/09/14 04:31:36;;;;;;;1.70;1.60;;;25.10;52.90;;;;;;5089767;28;45471;-86
2022/09/14 04:34:03;;;;;;;1.80;1.40;;;25.10;53.00;;;;;;5088791;28;47000;-86
2022/09/14 04:36:31;;;;;;;1.35;1.25;;;25.10;52.90;;;;;;5072699;28;45211;-86
2022/09/14 04:38:58;;;;;;;1.25;1.15;;;25.10;52.90;;;;;;5066340;28;45376;-85
2022/09/14 04:41:25;;;;;;;1.10;1.10;;;25.00;52.90;;;;;;5069236;28;45268;-85
2022/09/14 04:43:52;;;;;;;1.40;1.30;;;25.00;53.00;;;;;;5068179;28;47416;-86
2022/09/14 04:46:20;;;;;;;1.30;1.20;;;25.00;53.00;;;;;;5066169;28;45267;-85
2022/09/14 04:48:47;;;;;;;1.45;1.20;;;25.00;52.90;;;;;;5066347;28;45299;-85
2022/09/14 04:51:16;;;;;;;1.20;1.05;;;25.00;53.00;;;;;;5068978;28;45359;-85
2022/09/14 04:53:45;;;;;;;1.67;1.13;;;25.00;52.90;;;;;;5069675;28;47047;-84
2022/09/14 04:56:12;;;;;;;1.27;1.17;;;25.00;52.90;;;;;;5078114;28;44688;-85
2022/09/14 04:58:41;;;;;;;1.40;1.13;;;25.00;52.90;;;;;;5068674;28;45380;-85
2022/09/14 05:01:09;;;;;;;1.30;1.20;;;25.00;53.00;;;;;;5069361;28;45229;-85
2022/09/14 05:03:37;;;;;;;1.30;1.20;;;25.00;52.90;;;;;;5068545;28;45412;-85
2022/09/14 05:06:05;;;;;;;1.50;1.40;;;25.00;52.90;;;;;;5068643;28;45903;-84
2022/09/14 05:08:32;;;;;;;1.40;1.30;;;25.00;53.00;;;;;;5082525;28;45363;-85
2022/09/14 05:11:00;;;;;;;1.45;1.20;;;25.00;53.50;;;;;;5090612;27;45459;-85
2022/09/14 05:13:27;;;;;;;1.38;1.20;;;25.00;52.90;;;;;;5090198;28;46642;-85
2022/09/14 05:15:54;;;;;;;1.35;1.25;;;25.00;53.00;;;;;;5090328;28;45326;-85
2022/09/14 05:18:21;;;;;;;2.10;1.40;;;24.90;52.90;;;;;;5089043;28;45169;-85
2022/09/14 05:20:48;;;;;;;1.40;1.30;;;24.90;52.90;;;;;;5089285;28;45495;-85
2022/09/14 05:23:15;;;;;;;1.58;1.08;;;24.90;53.00;;;;;;5088747;28;46225;-84
2022/09/14 05:25:42;;;;;;;1.50;1.35;;;24.90;53.00;;;;;;5088422;28;45283;-86
2022/09/14 05:28:10;;;;;;;1.80;1.45;;;24.90;53.00;;;;;;5088638;28;45226;-85
2022/09/14 05:30:39;;;;;;;1.30;1.20;;;24.90;53.00;;;;;;5089226;28;45268;-85
2022/09/14 05:33:06;;;;;;;3.10;1.45;;;24.90;53.00;;;;;;5088472;28;46739;-86
2022/09/14 05:35:33;;;;;;;1.40;1.30;;;24.90;53.00;;;;;;5088570;28;45382;-86
2022/09/14 05:38:00;;;;;;;1.60;1.50;;;24.90;53.00;;;;;;5088880;28;45293;-86
2022/09/14 05:40:26;;;;;;;1.60;1.48;;;24.90;53.00;;;;;;5086392;28;45209;-84
2022/09/14 05:42:53;;;;;;;1.42;1.33;;;24.90;53.70;;;;;;5085911;28;45447;-84
2022/09/14 05:45:22;;;;;;;1.52;1.42;;;24.90;53.60;;;;;;5088439;28;45174;-86
2022/09/14 05:47:48;;;;;;;1.48;1.38;;;24.90;53.00;;;;;;5088829;28;45315;-86
2022/09/14 05:50:15;;;;;;;1.60;1.40;;;24.90;53.00;;;;;;5087011;28;45335;-84
2022/09/14 05:52:42;;;;;;;1.52;1.38;;;24.90;53.00;;;;;;5088556;28;47640;-85
2022/09/14 05:55:09;;;;;;;1.50;1.40;;;24.90;53.00;;;;;;5077333;28;45392;-85
2022/09/14 05:57:36;;;;;;;1.50;1.40;;;24.90;53.00;;;;;;5087574;28;45185;-85
2022/09/14 06:00:04;;;;;;;1.60;1.50;;;24.90;53.00;;;;;;5088470;28;45332;-85
2022/09/14 06:02:32;;;;;;;1.63;1.52;;;24.90;53.10;;;;;;5088133;28;45650;-86
2022/09/14 06:04:59;;;;;;;1.50;1.40;;;24.90;53.10;;;;;;5088513;28;45212;-85
2022/09/14 06:07:26;;;;;;;3.33;1.85;;;24.90;53.20;;;;;;5088413;28;45208;-85
2022/09/14 06:09:52;;;;;;;1.63;1.42;;;24.90;53.20;;;;;;5088763;28;45360;-85
2022/09/14 06:12:19;;;;;;;1.98;1.88;;;24.80;53.10;;;;;;5088017;28;46771;-85
2022/09/14 06:14:46;;;;;;;1.90;1.67;;;24.90;53.20;;;;;;5087526;28;45315;-86
2022/09/14 06:17:13;;;;;;;2.08;1.50;;;24.80;53.20;;;;;;5088113;28;45187;-85
2022/09/14 06:19:41;;;;;;;1.50;1.40;;;24.80;53.20;;;;;;5088512;28;45245;-86
2022/09/14 06:22:08;;;;;;;2.08;1.52;;;24.80;53.30;;;;;;5088439;28;47260;-85
2022/09/14 06:24:36;;;;;;;1.85;1.60;;;24.80;53.40;;;;;;5088692;28;45300;-85
2022/09/14 06:27:03;;;;;;;1.40;1.30;;;24.80;53.40;;;;;;5091702;28;45304;-85
2022/09/14 06:29:29;;;;;;;1.75;1.65;;;24.80;53.40;;;;;;5088214;28;45174;-85
2022/09/14 06:31:56;;;;;;;2.72;1.55;;;24.80;53.50;;;;;;5087596;28;47005;-86
2022/09/14 06:34:23;;;;;;;2.83;1.80;;;24.80;53.50;;;;;;5085286;28;45308;-85
2022/09/14 06:36:51;;;;;;;1.65;1.55;;;24.80;53.50;;;;;;5065975;28;45356;-86
2022/09/14 06:39:18;;;;;;;1.70;1.45;;;24.80;53.50;;;;;;5067481;28;44779;-86
2022/09/14 06:41:45;;;;;;;1.98;1.75;;;24.70;53.70;;;;;;5067502;28;47268;-87
2022/09/14 06:44:12;;;;;;;1.73;1.63;;;24.80;53.60;;;;;;5067342;28;45416;-87
2022/09/14 06:46:39;;;;;;;2.38;1.45;;;24.80;53.70;;;;;;5067050;28;45309;-85
2022/09/14 06:49:07;;;;;;;3.08;1.67;;;24.80;53.70;;;;;;5067342;28;45410;-86
2022/09/14 06:51:35;;;;;;;1.70;1.58;;;24.80;53.70;;;;;;5058980;28;46987;-86
2022/09/14 06:54:04;;;;;;;1.70;1.58;;;24.80;53.60;;;;;;5064959;28;45335;-86
2022/09/14 06:56:31;;;;;;;1.98;1.50;;;24.80;53.60;;;;;;5080922;28;45211;-86
2022/09/14 06:58:58;;;;;;;2.88;1.70;;;24.80;53.60;;;;;;5087755;28;45204;-86
2022/09/14 07:01:25;;;;;;;1.52;1.40;;;24.80;53.60;;;;;;5084926;28;46580;-86
2022/09/14 07:03:52;;;;;;;1.90;1.70;;;24.80;53.60;;;;;;5085017;28;45241;-86
2022/09/14 07:06:20;;;;;;;4.00;1.83;;;24.80;53.70;;;;;;5086530;28;45296;-86
2022/09/14 07:08:48;;;;;;;2.55;1.67;;;24.80;53.70;;;;;;5069819;28;45248;-86
2022/09/14 07:11:17;;;;;;;2.22;1.50;;;24.80;53.60;;;;;;5070522;28;45488;-86
2022/09/14 07:13:44;;;;;;;2.00;1.90;;;24.80;53.50;;;;;;5071003;28;45356;-85
2022/09/14 07:16:11;;;;;;;4.72;1.83;;;24.80;53.50;;;;;;5070750;28;45319;-86
2022/09/14 07:18:38;;;;;;;3.47;1.83;;;24.80;53.60;;;;;;5070818;28;45127;-87
2022/09/14 07:21:06;;;;;;;1.83;1.60;;;24.80;53.60;;;;;;5070539;28;45561;-85
2022/09/14 07:23:33;;;;;;;2.45;2.03;;;24.90;53.70;;;;;;5071279;28;45235;-85
2022/09/14 07:26:01;;;;;;;4.95;3.10;;;24.80;53.90;;;;;;5070717;28;45276;-87
2022/09/14 07:28:29;;;;;;;3.90;3.50;;;24.80;54.00;;;;;;5068274;28;45256;-86
2022/09/14 07:30:56;;;;;;;5.13;3.80;;;24.90;54.10;;;;;;5067851;28;45243;-87
2022/09/14 07:33:23;;;;;;;4.90;2.90;;;24.90;54.20;;;;;;5070944;28;45189;-87
2022/09/14 07:35:51;;;;;;;7.45;4.45;;;24.90;54.00;;;;;;5068564;28;45297;-86
2022/09/14 07:38:18;;;;;;;7.72;5.20;;;24.90;54.30;;;;;;5071142;28;45190;-87
2022/09/14 07:40:45;;;;;;;6.35;4.45;;;24.90;54.80;;;;;;5067376;28;46348;-86
2022/09/14 07:43:12;;;;;;;6.70;4.55;;;24.90;54.70;;;;;;5070525;28;45166;-84
2022/09/14 07:45:40;;;;;;;5.28;4.55;;;25.00;54.60;;;;;;5070427;28;45207;-85
2022/09/14 07:48:07;;;;;;;5.85;4.50;;;25.00;54.40;;;;;;5070981;28;45468;-85
2022/09/14 07:50:34;;;;;;;6.07;4.30;;;25.00;54.30;;;;;;5053579;28;45461;-87
2022/09/14 07:53:01;;;;;;;7.43;4.55;;;25.00;54.20;;;;;;5070376;28;45162;-86
2022/09/14 07:55:28;;;;;;;5.10;4.22;;;25.00;54.10;;;;;;5074562;28;45288;-86
2022/09/14 07:57:55;;;;;;;5.72;4.18;;;25.00;54.20;;;;;;5090291;28;45331;-86
2022/09/14 08:00:22;;;;;;;4.20;3.80;;;25.00;54.30;;;;;;5087721;28;45300;-87
2022/09/14 08:02:53;;;;;;;4.97;4.47;;;25.00;55.00;;;;;;5090907;28;45268;-85
2022/09/14 08:05:20;;;;;;;3.72;3.42;;;25.00;54.50;;;;;;5090695;28;45482;-86
2022/09/14 08:07:47;;;;;;;4.25;3.60;;;25.00;54.60;;;;;;5080949;28;44763;-84
2022/09/14 08:10:14;;;;;;;4.60;3.70;;;25.10;54.70;;;;;;5070149;28;46648;-85
2022/09/14 08:12:41;;;;;;;4.32;3.40;;;25.10;54.90;;;;;;5069381;28;45555;-85
2022/09/14 08:15:09;;;;;;;3.88;3.47;;;25.10;54.90;;;;;;5066981;28;45417;-85
2022/09/14 08:17:36;;;;;;;4.03;3.17;;;25.10;55.10;;;;;;5067421;28;45286;-84
2022/09/14 08:20:05;;;;;;;5.10;3.08;;;25.20;55.40;;;;;;5068831;28;46654;-85
2022/09/14 08:22:32;;;;;;;4.50;2.95;;;25.20;55.50;;;;;;5069644;28;45137;-86
2022/09/14 08:24:59;;;;;;;3.17;2.75;;;25.20;55.60;;;;;;5069125;28;45525;-85
2022/09/14 08:27:25;;;;;;;2.58;2.35;;;25.20;55.60;;;;;;5069860;28;45331;-86
2022/09/14 08:29:53;;;;;;;4.38;2.67;;;25.30;55.90;;;;;;5069421;28;46381;-86
2022/09/14 08:32:20;;;;;;;2.72;2.53;;;25.30;55.90;;;;;;5069486;28;45197;-86
2022/09/14 08:34:47;;;;;;;3.05;2.38;;;25.30;56.00;;;;;;5068294;28;45362;-85
2022/09/14 08:37:15;;;;;;;6.80;2.63;;;25.30;55.90;;;;;;5087413;28;45221;-85
2022/09/14 08:39:42;;;;;;;3.28;2.47;;;25.30;56.00;;;;;;5089520;28;46617;-86
2022/09/14 08:42:11;;;;;;;2.97;2.20;;;25.30;55.90;;;;;;5089316;28;45264;-86
2022/09/14 08:44:40;;;;;;;3.67;2.22;;;25.40;56.00;;;;;;5087152;28;45177;-85
2022/09/14 08:47:11;;;;;;;2.40;2.10;;;25.40;56.20;;;;;;5086843;28;45289;-86
2022/09/14 08:49:50;;;;;;;2.25;2.00;;;25.40;56.00;;;;;;5088684;28;45629;-86
2022/09/14 08:52:23;;;;;;;4.13;2.33;;;25.50;56.10;;;;;;5089147;28;45396;-86
2022/09/14 08:54:51;;;;;;;4.38;2.20;;;25.50;56.30;;;;;;5086401;28;45404;-86
2022/09/14 08:57:19;;;;;;;3.72;2.03;;;25.50;56.10;;;;;;5069207;28;45278;-85
2022/09/14 08:59:55;;;;;;;3.00;2.22;;;25.50;56.10;;;;;;5069101;28;45322;-86
2022/09/14 09:02:50;;;;;;;2.35;2.15;;;25.50;56.20;;;;;;5069262;28;45096;-86
2022/09/14 09:05:25;;;;;;;2.53;1.98;;;25.60;56.40;;;;;;5069059;28;45320;-85
2022/09/14 09:07:55;;;;;;;2.10;1.80;;;25.60;56.50;;;;;;5069208;28;45448;-84
2022/09/14 09:10:22;;;;;;;2.65;2.20;;;25.60;56.10;;;;;;5068900;28;46720;-84
2022/09/14 09:12:51;;;;;;;2.47;2.03;;;25.60;56.40;;;;;;5068225;28;45280;-86
2022/09/14 09:15:21;;;;;;;3.70;2.00;;;25.60;56.50;;;;;;5069521;28;45189;-86
2022/09/14 09:17:49;;;;;;;2.00;1.80;;;25.70;56.50;;;;;;5066350;28;45438;-85
2022/09/14 09:20:18;;;;;;;2.42;1.85;;;25.70;56.30;;;;;;5066133;28;46876;-85
2022/09/14 09:22:53;;;;;;;2.17;1.92;;;25.70;56.50;;;;;;5066359;28;45254;-85
2022/09/14 09:25:23;;;;;;;1.67;1.58;;;25.70;56.90;;;;;;5068572;28;45295;-85
2022/09/14 09:27:50;;;;;;;3.13;2.00;;;25.70;56.50;;;;;;5069274;28;44758;-85
2022/09/14 09:30:17;;;;;;;3.38;1.90;;;25.80;56.50;;;;;;5069172;28;45725;-84
2022/09/14 09:32:44;;;;;;;2.35;1.95;;;25.80;56.40;;;;;;5067772;28;45288;-85
2022/09/14 09:35:14;;;;;;;4.80;1.98;;;25.80;56.50;;;;;;5069146;28;45372;-85
2022/09/14 09:37:41;;;;;;;3.40;1.52;;;25.80;56.70;;;;;;5069019;28;45223;-85
2022/09/14 09:40:14;;;;;;;2.03;1.80;;;25.80;56.30;;;;;;5068458;28;48305;-85
2022/09/14 09:43:02;;;;;;;4.13;1.90;;;25.80;56.50;;;;;;5069099;28;45189;-85
2022/09/14 09:45:45;;;;;;;2.53;1.70;;;25.90;56.60;;;;;;5068635;28;45192;-84
2022/09/14 09:48:12;;;;;;;2.47;1.48;;;25.90;56.50;;;;;;5068690;28;45480;-85
2022/09/14 09:50:46;;;;;;;1.90;1.73;;;25.90;56.60;;;;;;5067386;28;46585;-84
2022/09/14 09:53:15;;;;;;;5.75;1.90;;;26.00;56.80;;;;;;5068419;28;45277;-86
2022/09/14 09:55:42;;;;;;;3.30;1.80;;;26.00;56.60;;;;;;5074935;28;45368;-86
2022/09/14 09:58:27;;;;;;;3.25;1.90;;;26.00;56.50;;;;;;5086724;28;45286;-85
2022/09/14 10:01:05;;;;;;;3.50;1.77;;;26.00;57.20;;;;;;5088925;28;47007;-85
2022/09/14 10:03:34;;;;;;;1.70;1.60;;;26.00;56.50;;;;;;5088627;28;45983;-86
2022/09/14 10:06:03;;;;;;;4.85;1.75;;;26.10;56.60;;;;;;5088851;28;45311;-86
2022/09/14 10:08:33;;;;;;;3.05;1.63;;;26.10;56.60;;;;;;5088704;28;44966;-85
2022/09/14 10:11:01;;;;;;;2.85;1.80;;;26.10;56.60;;;;;;5088669;28;45318;-85
2022/09/14 10:13:31;;;;;;;3.63;1.65;;;26.10;56.90;;;;;;5085856;28;45325;-85
2022/09/14 10:16:08;;;;;;;3.38;1.92;;;26.10;56.70;;;;;;5086171;28;45199;-85
2022/09/14 10:18:35;;;;;;;2.90;1.75;;;26.10;57.30;;;;;;5081144;28;45322;-85
2022/09/14 10:21:07;;;;;;;5.45;1.92;;;26.10;57.90;;;;;;5088376;28;46712;-86
2022/09/14 10:23:36;;;;;;;2.63;1.58;;;26.00;57.80;;;;;;5088507;28;45263;-85
2022/09/14 10:26:25;;;;;;;3.47;1.73;;;26.00;58.20;;;;;;5088268;28;45284;-85
2022/09/14 10:28:53;;;;;;;4.35;1.80;;;26.00;58.50;;;;;;5088628;28;45357;-85
2022/09/14 10:31:31;;;;;;;3.55;1.63;;;26.00;58.90;;;;;;5087963;28;46665;-85
2022/09/14 10:33:59;;;;;;;3.22;1.70;;;26.00;59.80;;;;;;5087682;28;45391;-84
2022/09/14 10:36:28;;;;;;;2.63;1.45;;;25.90;59.60;;;;;;5088043;28;45193;-84
2022/09/14 10:38:58;;;;;;;3.55;1.65;;;25.90;59.90;;;;;;5088386;28;45422;-84
2022/09/14 10:41:29;;;;;;;3.53;1.65;;;25.90;61.00;;;;;;5087779;28;46937;-83
2022/09/14 10:44:18;;;;;;;5.25;2.17;;;25.80;61.80;;;;;;5086958;27;45398;-84
2022/09/14 10:46:48;;;;;;;3.95;1.60;;;25.80;62.40;;;;;;5088297;28;45421;-84
2022/09/14 10:49:22;;;;;;;3.80;1.73;;;25.80;62.90;;;;;;5088106;28;45280;-83
2022/09/14 10:51:55;;;;;;;5.10;1.92;;;25.80;63.50;;;;;;5087274;28;45245;-84
2022/09/14 10:54:38;;;;;;;3.92;2.03;;;25.70;63.80;;;;;;5087600;28;45162;-84
2022/09/14 10:57:09;;;;;;;3.55;2.25;;;25.70;63.70;;;;;;5069387;28;45328;-85
2022/09/14 10:59:40;;;;;;;3.55;1.75;;;25.60;64.00;;;;;;5067150;28;45593;-84
2022/09/14 11:02:23;;;;;;;2.95;1.67;;;25.60;65.70;;;;;;5067204;28;45482;-84
2022/09/14 11:05:03;;;;;;;3.10;1.90;;;25.60;64.30;;;;;;5066650;28;46181;-84
2022/09/14 11:07:32;;;;;;;4.38;1.80;;;25.60;65.70;;;;;;5067266;28;45208;-85
2022/09/14 11:10:03;;;;;;;4.35;2.50;;;25.60;65.50;;;;;;5067326;28;45461;-84
2022/09/14 11:12:33;;;;;;;4.28;2.63;;;25.60;65.30;;;;;;5067210;28;47280;-85
2022/09/14 11:15:07;;;;;;;6.20;2.83;;;25.60;65.20;;;;;;5072063;28;45132;-85
2022/09/14 11:17:45;;;;;;;7.93;3.60;;;25.60;64.90;;;;;;5067716;28;45269;-86
2022/09/14 11:20:19;;;;;;;5.35;2.28;;;25.60;66.00;;;;;;5067581;28;45181;-86
2022/09/14 11:22:49;;;;;;;3.75;2.13;;;25.50;66.30;;;;;;5067041;28;46454;-86
2022/09/14 11:25:18;;;;;;;3.70;2.47;;;25.50;66.90;;;;;;5066473;28;45340;-85
2022/09/14 11:27:46;;;;;;;8.48;4.82;;;25.50;66.80;;;;;;5066980;28;45136;-85
2022/09/14 11:30:16;;;;;;;5.93;3.53;;;25.50;67.40;;;;;;5066920;28;45444;-85
2022/09/14 11:32:45;;;;;;;6.88;3.20;;;25.50;66.80;;;;;;5066733;28;45312;-85
2022/09/14 11:35:14;;;;;;;7.78;3.10;;;25.50;67.10;;;;;;5066244;28;45204;-84
2022/09/14 11:37:42;;;;;;;2.95;2.33;;;25.50;67.70;;;;;;5066610;28;45388;-83
2022/09/14 11:40:16;;;;;;;8.25;2.92;;;25.40;67.50;;;;;;5063960;28;45455;-84
2022/09/14 11:42:45;;;;;;;6.00;2.58;;;25.40;68.40;;;;;;5066184;28;45439;-84
2022/09/14 11:45:27;;;;;;;3.67;2.30;;;25.40;68.60;;;;;;5065469;28;46275;-84
2022/09/14 11:47:59;;;;;;;4.95;2.72;;;25.40;68.90;;;;;;5065457;28;45372;-84
2022/09/14 11:50:27;;;;;;;3.50;2.10;;;25.40;68.20;;;;;;5065247;28;45270;-86
2022/09/14 11:53:02;;;;;;;4.20;2.42;;;25.40;67.70;;;;;;5065895;28;47007;-85
2022/09/14 11:55:29;;;;;;;4.68;2.10;;;25.50;67.50;;;;;;5066084;28;45463;-87
2022/09/14 11:57:57;;;;;;;3.92;2.20;;;25.50;66.80;;;;;;5070073;28;45245;-86
2022/09/14 12:01:01;;;;;;;4.53;2.30;;;25.50;66.30;;;;;;5070036;28;45612;-85
2022/09/14 12:04:00;;;;;;;4.28;2.00;;;25.50;66.00;;;;;;5069599;28;45556;-84
2022/09/14 12:06:46;;;;;;;6.50;2.42;;;25.60;65.20;;;;;;5069479;28;45373;-85
2022/09/14 12:09:43;;;;;;;4.50;2.38;;;25.60;64.40;;;;;;5069653;28;45206;-86
2022/09/14 12:12:38;;;;;;;4.75;2.30;;;25.60;64.70;;;;;;5069826;28;45317;-86
2022/09/14 12:15:14;;;;;;;4.63;2.25;;;25.70;64.10;;;;;;5069633;28;45285;-86
2022/09/14 12:17:44;;;;;;;3.40;2.20;;;25.70;63.80;;;;;;5071779;28;45190;-85
2022/09/14 12:20:30;;;;;;;2.78;1.98;;;25.70;63.70;;;;;;5069448;28;45197;-84
2022/09/14 12:23:11;;;;;;;2.72;2.00;;;25.70;63.20;;;;;;5069584;28;45642;-84
2022/09/14 12:25:38;;;;;;;5.35;2.17;;;25.70;62.80;;;;;;5066452;28;45404;-84
2022/09/14 12:28:27;;;;;;;2.65;2.05;;;25.70;62.70;;;;;;5069212;28;45262;-84
2022/09/14 12:31:09;;;;;;;3.90;2.22;;;25.70;63.00;;;;;;5069338;28;45441;-84
2022/09/14 12:33:59;;;;;;;3.78;2.17;;;25.80;63.00;;;;;;5068657;28;45292;-84
2022/09/14 12:37:03;;;;;;;3.53;2.10;;;25.80;62.90;;;;;;5053076;28;47027;-84
2022/09/14 12:39:31;;;;;;;3.85;1.92;;;25.80;62.80;;;;;;5067123;28;45391;-84
2022/09/14 12:42:03;;;;;;;2.58;1.80;;;25.80;62.40;;;;;;5068826;28;45224;-84
2022/09/14 12:44:37;;;;;;;2.72;1.95;;;25.80;62.30;;;;;;5069071;28;44832;-85
2022/09/14 12:47:39;;;;;;;3.40;1.95;;;25.80;62.10;;;;;;5068673;28;45443;-85
2022/09/14 12:50:10;;;;;;;4.30;2.00;;;25.80;62.00;;;;;;5068633;28;45167;-84
2022/09/14 12:52:41;;;;;;;3.55;2.15;;;25.80;61.70;;;;;;5061437;28;45207;-84
2022/09/14 12:55:18;;;;;;;2.75;2.00;;;25.80;61.70;;;;;;5056175;28;45311;-84
2022/09/14 12:57:47;;;;;;;4.22;1.67;;;25.70;62.10;;;;;;5048307;28;45651;-84
2022/09/14 13:00:15;;;;;;;3.30;1.85;;;25.70;62.10;;;;;;5045809;28;45313;-84
2022/09/14 13:03:18;;;;;;;5.28;2.00;;;25.70;62.20;;;;;;5060270;28;45463;-84